createdAt,value
2023-02-16T00:01:26.528Z,28.92
2023-02-16T00:03:55.202Z,28.77
2023-02-16T00:06:22.541Z,32.42
2023-02-16T00:08:51.718Z,34.00
2023-02-16T00:11:39.282Z,30.23
2023-02-16T00:14:08.557Z,29.35
2023-02-16T00:16:35.909Z,30.65
2023-02-16T00:19:16.687Z,29.67
2023-02-16T00:21:43.189Z,27.42
2023-02-16T00:24:09.585Z,32.25
2023-02-16T00:26:36.035Z,28.55
2023-02-16T00:29:02.639Z,28.40
2023-02-16T00:31:33.100Z,30.05
2023-02-16T00:34:04.808Z,29.27
2023-02-16T00:36:31.187Z,27.02
2023-02-16T00:38:58.605Z,32.90
2023-02-16T00:41:43.990Z,27.67
2023-02-16T00:44:17.709Z,30.65
2023-02-16T00:46:45.020Z,30.63
2023-02-16T00:49:15.648Z,30.80
2023-02-16T00:51:42.581Z,30.17
2023-02-16T00:54:09.547Z,29.98
2023-02-16T00:56:36.935Z,31.70
2023-02-16T00:59:07.636Z,34.10
2023-02-16T01:01:37.486Z,31.13
2023-02-16T01:04:07.600Z,30.58
2023-02-16T01:06:52.773Z,35.17
2023-02-16T01:09:39.470Z,34.85
2023-02-16T01:12:18.312Z,35.45
2023-02-16T01:14:50.273Z,32.53
2023-02-16T01:17:16.754Z,31.38
2023-02-16T01:19:43.146Z,31.92
2023-02-16T01:22:09.566Z,32.80
2023-02-16T01:24:35.961Z,29.33
2023-02-16T01:27:02.509Z,33.13
2023-02-16T01:29:28.911Z,33.65
2023-02-16T01:31:55.487Z,32.22
2023-02-16T01:34:22.148Z,31.55
2023-02-16T01:36:49.283Z,32.83
2023-02-16T01:39:19.343Z,31.08
2023-02-16T01:42:14.456Z,34.67
2023-02-16T01:44:49.952Z,33.92
2023-02-16T01:47:38.054Z,36.78
2023-02-16T01:50:13.775Z,32.55
2023-02-16T01:52:44.362Z,34.00
2023-02-16T01:55:26.272Z,31.65
2023-02-16T01:58:05.394Z,33.65
2023-02-16T02:00:56.734Z,33.92
2023-02-16T02:03:53.397Z,33.88
2023-02-16T02:06:27.722Z,33.83
2023-02-16T02:09:01.930Z,38.60
2023-02-16T02:11:37.064Z,37.25
2023-02-16T02:14:11.775Z,37.78
2023-02-16T02:16:39.268Z,35.20
2023-02-16T02:19:05.770Z,36.55
2023-02-16T02:22:11.968Z,38.70
2023-02-16T02:25:03.030Z,34.60
2023-02-16T02:28:09.584Z,37.55
2023-02-16T02:30:53.825Z,34.80
2023-02-16T02:36:14.400Z,37.97
2023-02-16T02:39:03.122Z,37.60
2023-02-16T02:42:05.304Z,37.88
2023-02-16T02:44:57.883Z,38.97
2023-02-16T02:47:37.162Z,34.63
2023-02-16T02:50:03.794Z,34.28
2023-02-16T02:52:30.320Z,31.45
2023-02-16T02:55:15.869Z,33.80
2023-02-16T02:58:06.058Z,33.67
2023-02-16T03:00:44.697Z,33.17
2023-02-16T03:03:32.959Z,33.80
2023-02-16T03:06:05.218Z,35.55
2023-02-16T03:08:34.833Z,37.25
2023-02-16T03:12:03.021Z,34.88
2023-02-16T03:14:43.528Z,33.85
2023-02-16T03:17:35.058Z,34.88
2023-02-16T03:20:22.980Z,33.90
2023-02-16T03:23:08.904Z,33.50
2023-02-16T03:25:57.554Z,35.10
2023-02-16T03:28:45.926Z,35.08
2023-02-16T03:31:18.671Z,35.67
2023-02-16T03:33:46.706Z,35.30
2023-02-16T03:36:13.223Z,37.85
2023-02-16T03:38:39.716Z,32.40
2023-02-16T03:41:06.591Z,36.03
2023-02-16T03:43:33.240Z,37.30
2023-02-16T03:45:59.962Z,33.50
2023-02-16T03:48:26.447Z,32.95
2023-02-16T03:50:52.842Z,33.05
2023-02-16T03:53:19.278Z,35.28
2023-02-16T03:55:47.664Z,36.30
2023-02-16T03:58:17.823Z,35.42
2023-02-16T04:00:44.912Z,34.25
2023-02-16T04:03:11.437Z,34.63
2023-02-16T04:05:38.079Z,36.50
2023-02-16T04:08:05.362Z,37.38
2023-02-16T04:10:31.904Z,36.08
2023-02-16T04:12:58.326Z,34.50
2023-02-16T04:15:28.195Z,32.65
2023-02-16T04:17:55.514Z,37.22
2023-02-16T04:20:25.099Z,33.53
2023-02-16T04:22:52.110Z,37.78
2023-02-16T04:25:19.309Z,34.60
2023-02-16T04:27:46.638Z,37.90
2023-02-16T04:30:16.118Z,36.67
2023-02-16T04:32:43.003Z,30.10
2023-02-16T04:35:10.206Z,34.47
2023-02-16T04:37:36.923Z,36.35
2023-02-16T04:40:04.740Z,34.72
2023-02-16T04:42:31.316Z,35.85
2023-02-16T04:44:57.801Z,34.97
2023-02-16T04:47:26.533Z,37.05
2023-02-16T04:49:54.091Z,37.00
2023-02-16T04:52:20.557Z,33.67
2023-02-16T04:54:47.325Z,38.50
2023-02-16T04:57:13.719Z,35.40
2023-02-16T04:59:40.074Z,34.35
2023-02-16T05:02:06.899Z,35.90
2023-02-16T05:04:33.453Z,36.30
2023-02-16T05:07:00.037Z,35.63
2023-02-16T05:09:26.469Z,39.20
2023-02-16T05:12:11.675Z,38.17
2023-02-16T05:14:46.935Z,38.03
2023-02-16T05:17:25.422Z,38.08
2023-02-16T05:20:01.536Z,33.42
2023-02-16T05:22:34.268Z,39.67
2023-02-16T05:25:01.901Z,41.65
2023-02-16T05:27:30.437Z,38.13
2023-02-16T05:29:57.955Z,39.00
2023-02-16T05:32:24.613Z,39.45
2023-02-16T05:34:51.094Z,39.35
2023-02-16T05:37:18.826Z,37.33
2023-02-16T05:39:46.032Z,36.03
2023-02-16T05:42:12.486Z,38.90
2023-02-16T05:44:39.021Z,37.20
2023-02-16T05:47:05.469Z,39.58
2023-02-16T05:49:31.950Z,38.10
2023-02-16T05:51:58.836Z,36.13
2023-02-16T05:54:25.462Z,36.08
2023-02-16T05:56:52.759Z,36.22
2023-02-16T05:59:19.842Z,39.47
2023-02-16T06:01:51.000Z,33.80
2023-02-16T06:04:18.219Z,36.90
2023-02-16T06:06:44.733Z,38.05
2023-02-16T06:09:12.043Z,34.90
2023-02-16T06:11:38.878Z,36.75
2023-02-16T06:14:12.464Z,40.13
2023-02-16T06:16:41.207Z,38.20
2023-02-16T06:19:08.681Z,37.35
2023-02-16T06:21:37.330Z,36.92
2023-02-16T06:24:04.513Z,39.08
2023-02-16T06:26:31.053Z,36.13
2023-02-16T06:28:57.819Z,35.75
2023-02-16T06:31:25.274Z,34.25
2023-02-16T06:33:52.899Z,36.28
2023-02-16T06:36:20.364Z,37.35
2023-02-16T06:38:47.120Z,34.47
2023-02-16T06:41:13.771Z,38.80
2023-02-16T06:43:40.175Z,37.17
2023-02-16T06:46:06.797Z,37.75
2023-02-16T06:48:33.346Z,35.90
2023-02-16T06:50:59.815Z,35.10
2023-02-16T06:53:26.288Z,36.58
2023-02-16T06:55:52.765Z,33.72
2023-02-16T06:58:19.511Z,37.17
2023-02-16T07:00:46.014Z,33.90
2023-02-16T07:03:12.505Z,37.97
2023-02-16T07:05:38.998Z,34.92
2023-02-16T07:08:05.408Z,33.78
2023-02-16T07:10:47.525Z,38.42
2023-02-16T07:13:16.223Z,37.70
2023-02-16T07:15:42.631Z,39.00
2023-02-16T07:18:09.256Z,37.97
2023-02-16T07:20:36.016Z,36.22
2023-02-16T07:23:02.394Z,38.22
2023-02-16T07:25:28.771Z,34.08
2023-02-16T07:27:55.285Z,35.28
2023-02-16T07:30:22.215Z,35.40
2023-02-16T07:32:48.664Z,36.15
2023-02-16T07:35:16.124Z,38.35
2023-02-16T07:37:42.561Z,35.53
2023-02-16T07:40:09.504Z,34.10
2023-02-16T07:42:35.925Z,34.42
2023-02-16T07:45:03.257Z,37.90
2023-02-16T07:47:29.798Z,35.20
2023-02-16T07:49:56.266Z,39.20
2023-02-16T07:52:22.772Z,37.80
2023-02-16T07:54:49.218Z,37.25
2023-02-16T07:57:15.626Z,37.97
2023-02-16T07:59:42.155Z,41.97
2023-02-16T08:02:15.647Z,37.00
2023-02-16T08:04:42.438Z,40.67
2023-02-16T08:07:14.094Z,38.60
2023-02-16T08:09:40.848Z,39.20
2023-02-16T08:12:12.208Z,40.95
2023-02-16T08:14:38.975Z,35.22
2023-02-16T08:17:06.644Z,37.78
2023-02-16T08:19:33.522Z,39.47
2023-02-16T08:22:02.298Z,38.10
2023-02-16T08:24:28.832Z,40.03
2023-02-16T08:26:55.713Z,36.42
2023-02-16T08:29:25.078Z,39.60
2023-02-16T08:31:53.123Z,39.67
2023-02-16T08:34:20.347Z,37.58
2023-02-16T08:36:51.143Z,41.38
2023-02-16T08:39:19.842Z,35.22
2023-02-16T08:41:48.069Z,38.47
2023-02-16T08:44:16.360Z,36.90
2023-02-16T08:46:44.627Z,35.58
2023-02-16T08:49:12.256Z,34.35
2023-02-16T08:51:45.963Z,39.10
2023-02-16T08:54:18.494Z,38.08
2023-02-16T08:56:47.835Z,35.27
2023-02-16T08:59:16.280Z,36.80
2023-02-16T09:01:42.817Z,39.08
2023-02-16T09:04:09.768Z,36.25
2023-02-16T09:06:38.611Z,37.13
2023-02-16T09:09:05.971Z,38.05
2023-02-16T09:11:32.886Z,36.15
2023-02-16T09:13:59.644Z,34.28
2023-02-16T09:16:27.971Z,38.45
2023-02-16T09:18:55.148Z,37.17
2023-02-16T09:21:25.385Z,33.00
2023-02-16T09:23:55.647Z,36.25
2023-02-16T09:26:24.378Z,37.22
2023-02-16T09:28:51.676Z,36.90
2023-02-16T09:31:26.980Z,33.60
2023-02-16T09:33:56.040Z,36.25
2023-02-16T09:36:22.528Z,30.75
2023-02-16T09:38:50.070Z,35.67
2023-02-16T09:41:41.023Z,32.90
2023-02-16T09:44:28.688Z,35.70
2023-02-16T09:46:58.564Z,41.05
2023-02-16T09:49:45.002Z,36.85
2023-02-16T09:52:23.010Z,35.15
2023-02-16T09:54:53.208Z,34.53
2023-02-16T09:57:38.264Z,36.88
2023-02-16T10:00:24.357Z,31.30
2023-02-16T10:03:13.259Z,33.40
2023-02-16T10:06:13.639Z,34.83
2023-02-16T10:08:48.800Z,32.75
2023-02-16T10:11:46.483Z,32.25
2023-02-16T10:14:33.443Z,31.85
2023-02-16T10:17:30.043Z,34.65
2023-02-16T10:20:06.582Z,31.95
2023-02-16T10:22:50.113Z,32.75
2023-02-16T10:25:32.262Z,31.85
2023-02-16T10:28:13.883Z,38.30
2023-02-16T10:30:48.098Z,31.55
2023-02-16T10:33:31.854Z,33.83
2023-02-16T10:36:03.058Z,32.10
2023-02-16T10:38:41.580Z,30.02
2023-02-16T10:41:15.845Z,32.97
2023-02-16T10:43:45.142Z,31.80
2023-02-16T10:46:19.503Z,34.63
2023-02-16T10:48:46.531Z,34.13
2023-02-16T10:51:16.709Z,34.42
2023-02-16T10:53:51.224Z,34.15
2023-02-16T10:56:36.245Z,34.00
2023-02-16T10:59:07.574Z,35.40
2023-02-16T11:01:45.006Z,33.05
2023-02-16T11:04:31.423Z,36.75
2023-02-16T11:07:17.777Z,30.27
2023-02-16T11:09:46.522Z,31.10
2023-02-16T11:12:16.692Z,31.10
2023-02-16T11:14:50.703Z,29.90
2023-02-16T11:17:20.420Z,32.35
2023-02-16T11:20:05.529Z,32.15
2023-02-16T11:22:33.849Z,31.38
2023-02-16T11:25:19.833Z,29.05
2023-02-16T11:27:57.305Z,32.88
2023-02-16T11:30:37.608Z,35.58
2023-02-16T11:33:20.868Z,32.70
2023-02-16T11:35:47.852Z,32.53
2023-02-16T11:38:31.514Z,31.35
2023-02-16T11:41:00.595Z,31.02
2023-02-16T11:43:31.075Z,32.33
2023-02-16T11:46:13.240Z,32.65
2023-02-16T11:48:40.346Z,36.50
2023-02-16T11:51:10.516Z,35.10
2023-02-16T11:53:43.139Z,33.42
2023-02-16T11:56:22.137Z,32.63
2023-02-16T11:59:12.912Z,35.10
2023-02-16T12:01:45.024Z,35.83
2023-02-16T12:04:18.424Z,32.78
2023-02-16T12:09:43.144Z,32.43
2023-02-16T12:12:12.335Z,36.20
2023-02-16T12:15:03.249Z,35.78
2023-02-16T12:18:11.776Z,34.20
2023-02-16T12:21:02.629Z,36.10
2023-02-16T12:23:39.648Z,40.08
2023-02-16T12:26:31.608Z,37.70
2023-02-16T12:29:24.139Z,34.40
2023-02-16T12:32:31.019Z,34.83
2023-02-16T12:35:09.922Z,34.70
2023-02-16T12:37:58.428Z,33.65
2023-02-16T12:40:47.330Z,32.20
2023-02-16T12:43:41.997Z,37.42
2023-02-16T12:46:18.222Z,33.33
2023-02-16T12:48:56.929Z,31.40
2023-02-16T12:51:32.478Z,37.85
2023-02-16T12:54:17.542Z,32.63
2023-02-16T12:56:52.546Z,33.78
2023-02-16T12:59:29.742Z,34.33
2023-02-16T13:01:58.613Z,29.70
2023-02-16T13:04:29.700Z,34.30
2023-02-16T13:07:15.676Z,33.67
2023-02-16T13:09:57.689Z,33.72
2023-02-16T13:12:39.331Z,37.78
2023-02-16T13:15:17.357Z,30.77
2023-02-16T13:17:56.999Z,33.80
2023-02-16T13:20:24.787Z,35.22
2023-02-16T13:22:58.479Z,32.38
2023-02-16T13:25:54.956Z,33.90
2023-02-16T13:28:45.930Z,29.08
2023-02-16T13:31:31.259Z,32.10
2023-02-16T13:34:19.983Z,35.92
2023-02-16T13:37:09.187Z,34.88
2023-02-16T13:39:53.866Z,30.73
2023-02-16T13:42:52.553Z,35.33
2023-02-16T13:45:22.917Z,31.70
2023-02-16T13:47:53.219Z,33.58
2023-02-16T13:50:23.641Z,38.42
2023-02-16T13:52:56.562Z,34.90
2023-02-16T13:55:33.531Z,39.72
2023-02-16T13:58:14.029Z,34.65
2023-02-16T14:00:48.996Z,34.35
2023-02-16T14:03:21.353Z,38.75
2023-02-16T14:05:53.134Z,39.55
2023-02-16T14:08:30.711Z,40.17
2023-02-16T14:11:03.813Z,36.05
2023-02-16T14:13:39.444Z,35.72
2023-02-16T14:16:14.870Z,32.42
2023-02-16T14:18:43.975Z,35.45
2023-02-16T14:21:27.492Z,36.55
2023-02-16T14:23:56.350Z,37.17
2023-02-16T14:26:23.317Z,36.88
2023-02-16T14:29:01.091Z,34.28
2023-02-16T14:31:29.499Z,35.75
2023-02-16T14:34:05.547Z,31.20
2023-02-16T14:36:33.115Z,32.88
2023-02-16T14:39:01.401Z,31.65
2023-02-16T14:41:36.765Z,31.33
2023-02-16T14:44:05.906Z,32.95
2023-02-16T14:46:47.589Z,29.17
2023-02-16T14:49:33.850Z,32.90
2023-02-16T14:52:35.819Z,32.70
2023-02-16T14:55:45.937Z,30.80
2023-02-16T14:58:30.368Z,30.75
2023-02-16T15:01:12.853Z,32.88
2023-02-16T15:03:51.749Z,33.05
2023-02-16T15:06:20.922Z,32.28
2023-02-16T15:08:58.070Z,29.50
2023-02-16T15:11:30.471Z,35.75
2023-02-16T15:14:11.303Z,31.13
2023-02-16T15:16:40.998Z,40.17
2023-02-16T15:19:12.016Z,40.47
2023-02-16T15:21:39.205Z,37.50
2023-02-16T15:24:07.598Z,38.88
2023-02-16T15:26:35.867Z,33.83
2023-02-16T15:29:21.262Z,34.65
2023-02-16T15:31:48.588Z,35.63
2023-02-16T15:34:35.596Z,36.53
2023-02-16T15:37:22.544Z,38.28
2023-02-16T15:40:08.715Z,36.20
2023-02-16T15:42:35.777Z,33.80
2023-02-16T15:45:25.768Z,33.38
2023-02-16T15:47:53.434Z,37.22
2023-02-16T15:50:26.777Z,34.78
2023-02-16T15:52:54.027Z,34.60
2023-02-16T15:55:20.569Z,34.33
2023-02-16T15:57:47.014Z,36.13
2023-02-16T16:00:21.560Z,40.42
2023-02-16T16:02:59.055Z,31.60
2023-02-16T16:05:28.133Z,32.17
2023-02-16T16:07:56.865Z,31.05
2023-02-16T16:10:32.349Z,34.65
2023-02-16T16:13:03.006Z,33.78
2023-02-16T16:15:40.639Z,29.52
2023-02-16T16:18:39.053Z,34.28
2023-02-16T16:21:23.697Z,31.02
2023-02-16T16:24:00.301Z,30.10
2023-02-16T16:26:30.016Z,34.10
2023-02-16T16:28:57.351Z,28.23
2023-02-16T16:31:23.740Z,29.45
2023-02-16T16:34:01.176Z,27.33
2023-02-16T16:37:02.683Z,26.58
2023-02-16T16:39:35.307Z,23.33
2023-02-16T16:42:21.275Z,24.27
2023-02-16T16:45:19.727Z,25.25
2023-02-16T16:47:51.191Z,29.27
2023-02-16T16:50:18.210Z,27.10
2023-02-16T16:52:47.536Z,23.08
2023-02-16T16:55:20.024Z,23.20
2023-02-16T16:57:48.419Z,27.83
2023-02-16T17:00:15.971Z,26.17
2023-02-16T17:02:43.015Z,23.75
2023-02-16T17:05:09.534Z,24.25
2023-02-16T17:07:36.152Z,24.77
2023-02-16T17:10:02.759Z,21.10
2023-02-16T17:12:29.625Z,22.75
2023-02-16T17:14:56.119Z,24.77
2023-02-16T17:17:22.804Z,24.40
2023-02-16T17:19:49.195Z,29.98
2023-02-16T17:22:18.530Z,22.35
2023-02-16T17:24:45.020Z,22.25
2023-02-16T17:27:11.966Z,18.33
2023-02-16T17:29:38.962Z,20.63
2023-02-16T17:32:05.747Z,17.02
2023-02-16T17:34:32.179Z,19.95
2023-02-16T17:37:00.823Z,17.58
2023-02-16T17:39:27.210Z,21.10
2023-02-16T17:41:53.657Z,19.27
2023-02-16T17:44:20.055Z,20.13
2023-02-16T17:46:46.532Z,20.70
2023-02-16T17:49:13.358Z,15.45
2023-02-16T17:51:39.792Z,20.13
2023-02-16T17:54:08.564Z,20.95
2023-02-16T17:56:36.491Z,18.48
2023-02-16T17:59:03.469Z,22.08
2023-02-16T18:01:29.942Z,20.60
2023-02-16T18:03:56.533Z,22.60
2023-02-16T18:06:28.908Z,20.48
2023-02-16T18:08:55.613Z,18.52
2023-02-16T18:11:22.294Z,18.67
2023-02-16T18:13:48.751Z,17.15
2023-02-16T18:16:21.693Z,16.98
2023-02-16T18:18:48.207Z,19.27
2023-02-16T18:21:14.612Z,16.67
2023-02-16T18:23:41.784Z,16.20
2023-02-16T18:26:08.254Z,14.80
2023-02-16T18:28:34.971Z,20.95
2023-02-16T18:31:05.344Z,19.92
2023-02-16T18:33:33.900Z,18.60
2023-02-16T18:36:01.326Z,20.90
2023-02-16T18:38:27.980Z,18.75
2023-02-16T18:40:55.109Z,19.80
2023-02-16T18:43:22.395Z,16.80
2023-02-16T18:45:49.323Z,16.58
2023-02-16T18:48:15.988Z,16.08
2023-02-16T18:50:42.647Z,20.20
2023-02-16T18:53:09.036Z,17.52
2023-02-16T18:55:35.799Z,16.20
2023-02-16T18:58:06.705Z,15.23
2023-02-16T19:00:34.506Z,19.85
2023-02-16T19:03:00.905Z,22.65
2023-02-16T19:05:27.456Z,16.95
2023-02-16T19:07:53.806Z,15.90
2023-02-16T19:10:20.303Z,17.20
2023-02-16T19:12:46.674Z,21.33
2023-02-16T19:15:13.395Z,22.38
2023-02-16T19:17:39.895Z,24.17
2023-02-16T19:20:09.699Z,20.77
2023-02-16T19:22:37.147Z,15.55
2023-02-16T19:25:06.701Z,16.35
2023-02-16T19:27:33.669Z,25.85
2023-02-16T19:30:00.178Z,18.00
2023-02-16T19:32:27.054Z,19.88
2023-02-16T19:34:53.425Z,20.48
2023-02-16T19:37:19.794Z,16.73
2023-02-16T19:39:46.638Z,20.38
2023-02-16T19:42:13.115Z,21.17
2023-02-16T19:44:40.314Z,20.67
2023-02-16T19:47:07.164Z,20.45
2023-02-16T19:49:35.595Z,19.13
2023-02-16T19:52:04.059Z,16.60
2023-02-16T19:54:34.574Z,16.92
2023-02-16T19:57:01.866Z,18.85
2023-02-16T19:59:28.344Z,18.83
2023-02-16T20:01:54.888Z,17.00
2023-02-16T20:04:21.373Z,17.00
2023-02-16T20:06:48.781Z,18.15
2023-02-16T20:09:17.563Z,19.70
2023-02-16T20:11:44.071Z,20.60
2023-02-16T20:14:11.770Z,19.77
2023-02-16T20:16:39.092Z,21.05
2023-02-16T20:19:06.016Z,18.58
2023-02-16T20:21:33.214Z,19.02
2023-02-16T20:24:02.078Z,20.38
2023-02-16T20:26:33.940Z,18.77
2023-02-16T20:29:01.112Z,21.75
2023-02-16T20:31:33.923Z,20.98
2023-02-16T20:34:01.027Z,24.45
2023-02-16T20:36:27.616Z,18.92
2023-02-16T20:38:54.404Z,20.35
2023-02-16T20:41:21.438Z,19.02
2023-02-16T20:43:48.122Z,20.88
2023-02-16T20:46:15.633Z,20.95
2023-02-16T20:48:42.263Z,18.95
2023-02-16T20:51:10.605Z,17.38
2023-02-16T20:53:37.074Z,21.60
2023-02-16T20:56:16.550Z,20.83
2023-02-16T20:58:44.358Z,19.63
2023-02-16T21:01:38.582Z,20.58
2023-02-16T21:04:07.269Z,20.25
2023-02-16T21:06:34.743Z,20.50
2023-02-16T21:09:01.548Z,22.83
2023-02-16T21:11:28.047Z,22.27
2023-02-16T21:13:54.518Z,20.17
2023-02-16T21:16:21.756Z,24.27
2023-02-16T21:18:48.282Z,20.40
2023-02-16T21:21:17.581Z,21.30
2023-02-16T21:23:47.914Z,24.55
2023-02-16T21:26:14.513Z,24.58
2023-02-16T21:28:41.682Z,24.35
2023-02-16T21:31:14.528Z,23.27
2023-02-16T21:33:41.007Z,24.20
2023-02-16T21:36:10.789Z,21.02
2023-02-16T21:38:38.561Z,22.88
2023-02-16T21:41:29.113Z,22.40
2023-02-16T21:44:08.968Z,25.33
2023-02-16T21:46:38.295Z,23.73
2023-02-16T21:49:07.551Z,22.35
2023-02-16T21:51:36.422Z,21.02
2023-02-16T21:54:05.628Z,25.75
2023-02-16T21:56:34.900Z,21.45
2023-02-16T21:59:01.975Z,22.15
2023-02-16T22:01:31.009Z,21.73
2023-02-16T22:04:00.271Z,24.08
2023-02-16T22:06:35.600Z,23.38
2023-02-16T22:09:06.240Z,22.10
2023-02-16T22:11:32.818Z,19.23
2023-02-16T22:14:00.195Z,27.23
2023-02-16T22:16:28.060Z,19.35
2023-02-16T22:19:04.974Z,27.92
2023-02-16T22:21:38.198Z,23.55
2023-02-16T22:24:05.756Z,22.33
2023-02-16T22:26:34.343Z,21.30
2023-02-16T22:29:03.417Z,21.85
2023-02-16T22:31:29.949Z,24.35
2023-02-16T22:34:01.684Z,25.45
2023-02-16T22:36:29.200Z,25.17
2023-02-16T22:38:56.136Z,20.58
2023-02-16T22:41:23.661Z,24.13
2023-02-16T22:43:54.941Z,24.98
2023-02-16T22:46:23.050Z,22.33
2023-02-16T22:48:49.543Z,25.35
2023-02-16T22:51:16.976Z,26.70
2023-02-16T22:53:44.114Z,26.65
2023-02-16T22:56:14.120Z,30.58
2023-02-16T22:58:40.701Z,23.88
2023-02-16T23:01:12.596Z,31.02
2023-02-16T23:03:39.158Z,23.80
2023-02-16T23:06:17.040Z,20.10
2023-02-16T23:08:44.800Z,22.45
2023-02-16T23:11:11.979Z,24.98
2023-02-16T23:13:39.017Z,20.23
2023-02-16T23:16:08.841Z,22.10
2023-02-16T23:18:35.297Z,20.08
2023-02-16T23:21:18.283Z,19.48
2023-02-16T23:23:46.202Z,18.13
2023-02-16T23:26:13.841Z,20.45
2023-02-16T23:28:42.628Z,18.33
2023-02-16T23:31:09.602Z,19.70
2023-02-16T23:33:36.077Z,22.42
2023-02-16T23:36:02.715Z,20.10
2023-02-16T23:38:29.491Z,18.35
2023-02-16T23:40:57.943Z,20.42
2023-02-16T23:43:25.037Z,19.45
2023-02-16T23:45:52.468Z,21.15
2023-02-16T23:48:18.985Z,18.33
2023-02-16T23:50:45.448Z,19.95
2023-02-16T23:53:11.868Z,20.98
2023-02-16T23:55:38.298Z,19.00
2023-02-16T23:58:04.717Z,18.65
